< < Back
Terminal Aerodrome Forecast


Current Version              Previous Versions:   1  2  3  4  5  6  7  8  9  

Terminal Aerodrome Forecast

842
FTUS42 KGSP 292333
TAFAVL
TAF
KAVL 292333Z 3000/3024 34010G20KT P6SM BKN250
     FM300400 35008KT P6SM FEW250
     FM301800 34006KT P6SM SKC=



Latest METAR

049
SAUS70 KWBC 301900 RRM
MTRAVL
METAR KAVL 301854Z 36007KT 10SM CLR 17/M01 A3000 RMK AO2 SLP147
T01721006


USA.gov is the U.S. government's official web portal to all federal, state and local government web resources and services.